sensor_id;sensor_type;location;lat;lon;timestamp;P1;durP1;ratioP1;P2;durP2;ratioP2
1759;SDS011;877;46.266;20.062;2022-09-27T00:02:16;14.53;;;11.97;;
1759;SDS011;877;46.266;20.062;2022-09-27T00:04:49;17.23;;;10.77;;
1759;SDS011;877;46.266;20.062;2022-09-27T00:07:34;22.20;;;12.33;;
1759;SDS011;877;46.266;20.062;2022-09-27T00:15:22;12.13;;;10.90;;
1759;SDS011;877;46.266;20.062;2022-09-27T00:17:55;12.33;;;11.13;;
1759;SDS011;877;46.266;20.062;2022-09-27T00:20:22;11.00;;;9.90;;
1759;SDS011;877;46.266;20.062;2022-09-27T00:22:49;12.03;;;10.83;;
1759;SDS011;877;46.266;20.062;2022-09-27T00:25:16;11.20;;;10.13;;
1759;SDS011;877;46.266;20.062;2022-09-27T00:27:42;12.33;;;11.13;;
1759;SDS011;877;46.266;20.062;2022-09-27T00:30:16;12.53;;;11.23;;
1759;SDS011;877;46.266;20.062;2022-09-27T00:32:42;13.53;;;12.10;;
1759;SDS011;877;46.266;20.062;2022-09-27T00:35:23;23.93;;;12.30;;
1759;SDS011;877;46.266;20.062;2022-09-27T00:38:00;32.97;;;11.50;;
1759;SDS011;877;46.266;20.062;2022-09-27T00:40:39;19.10;;;11.20;;
1759;SDS011;877;46.266;20.062;2022-09-27T00:43:16;17.27;;;11.33;;
1759;SDS011;877;46.266;20.062;2022-09-27T00:45:58;14.03;;;11.20;;
1759;SDS011;877;46.266;20.062;2022-09-27T00:51:02;16.50;;;11.97;;
1759;SDS011;877;46.266;20.062;2022-09-27T00:59:13;13.77;;;12.07;;
1759;SDS011;877;46.266;20.062;2022-09-27T01:01:52;13.73;;;12.33;;
1759;SDS011;877;46.266;20.062;2022-09-27T01:07:07;14.20;;;12.07;;
1759;SDS011;877;46.266;20.062;2022-09-27T01:15:02;31.50;;;10.90;;
1759;SDS011;877;46.266;20.062;2022-09-27T01:39:09;19.83;;;10.63;;
1759;SDS011;877;46.266;20.062;2022-09-27T01:42:02;29.23;;;10.63;;
1759;SDS011;877;46.266;20.062;2022-09-27T01:44:36;28.17;;;11.60;;
1759;SDS011;877;46.266;20.062;2022-09-27T01:47:52;14.60;;;10.73;;
1759;SDS011;877;46.266;20.062;2022-09-27T01:50:07;16.43;;;11.40;;
1759;SDS011;877;46.266;20.062;2022-09-27T01:55:37;37.80;;;12.23;;
1759;SDS011;877;46.266;20.062;2022-09-27T01:58:12;38.83;;;11.60;;
1759;SDS011;877;46.266;20.062;2022-09-27T02:03:17;42.67;;;14.37;;
1759;SDS011;877;46.266;20.062;2022-09-27T02:05:46;45.93;;;14.60;;
1759;SDS011;877;46.266;20.062;2022-09-27T02:08:21;29.80;;;12.33;;
1759;SDS011;877;46.266;20.062;2022-09-27T02:10:47;29.13;;;12.83;;
1759;SDS011;877;46.266;20.062;2022-09-27T02:13:20;34.27;;;12.50;;
1759;SDS011;877;46.266;20.062;2022-09-27T02:18:27;25.43;;;18.00;;
1759;SDS011;877;46.266;20.062;2022-09-27T02:21:06;21.97;;;15.60;;
1759;SDS011;877;46.266;20.062;2022-09-27T02:29:23;18.03;;;13.80;;
1759;SDS011;877;46.266;20.062;2022-09-27T02:31:54;20.83;;;13.60;;
1759;SDS011;877;46.266;20.062;2022-09-27T02:34:22;17.47;;;14.20;;
1759;SDS011;877;46.266;20.062;2022-09-27T02:36:51;36.60;;;13.60;;
1759;SDS011;877;46.266;20.062;2022-09-27T02:39:23;38.30;;;13.97;;
1759;SDS011;877;46.266;20.062;2022-09-27T02:41:55;32.37;;;13.67;;
1759;SDS011;877;46.266;20.062;2022-09-27T02:44:27;22.60;;;14.53;;
1759;SDS011;877;46.266;20.062;2022-09-27T02:50:04;35.93;;;15.27;;
1759;SDS011;877;46.266;20.062;2022-09-27T02:55:37;20.70;;;14.57;;
1759;SDS011;877;46.266;20.062;2022-09-27T03:05:51;16.23;;;12.40;;
1759;SDS011;877;46.266;20.062;2022-09-27T03:08:19;23.13;;;12.87;;
1759;SDS011;877;46.266;20.062;2022-09-27T03:16:06;37.47;;;12.80;;
1759;SDS011;877;46.266;20.062;2022-09-27T03:21:09;18.63;;;11.70;;
1759;SDS011;877;46.266;20.062;2022-09-27T03:23:36;17.77;;;12.20;;
1759;SDS011;877;46.266;20.062;2022-09-27T03:28:37;26.10;;;10.53;;
1759;SDS011;877;46.266;20.062;2022-09-27T03:33:58;33.20;;;12.03;;
1759;SDS011;877;46.266;20.062;2022-09-27T03:36:33;18.40;;;11.40;;
1759;SDS011;877;46.266;20.062;2022-09-27T03:38:59;16.33;;;10.40;;
1759;SDS011;877;46.266;20.062;2022-09-27T03:41:25;13.33;;;10.33;;
1759;SDS011;877;46.266;20.062;2022-09-27T03:46:27;23.33;;;10.90;;
1759;SDS011;877;46.266;20.062;2022-09-27T03:48:54;25.63;;;11.80;;
1759;SDS011;877;46.266;20.062;2022-09-27T03:51:22;32.50;;;12.70;;
1759;SDS011;877;46.266;20.062;2022-09-27T03:53:52;37.00;;;13.57;;
1759;SDS011;877;46.266;20.062;2022-09-27T03:58:57;36.97;;;13.63;;
1759;SDS011;877;46.266;20.062;2022-09-27T04:01:24;29.37;;;11.67;;
1759;SDS011;877;46.266;20.062;2022-09-27T04:03:55;21.70;;;11.40;;
1759;SDS011;877;46.266;20.062;2022-09-27T04:06:32;20.27;;;11.90;;
1759;SDS011;877;46.266;20.062;2022-09-27T04:08:59;31.13;;;12.60;;
1759;SDS011;877;46.266;20.062;2022-09-27T04:13:57;18.90;;;11.33;;
1759;SDS011;877;46.266;20.062;2022-09-27T04:19:22;15.50;;;11.93;;
1759;SDS011;877;46.266;20.062;2022-09-27T04:27:01;22.70;;;11.70;;
1759;SDS011;877;46.266;20.062;2022-09-27T04:29:35;21.90;;;11.60;;
1759;SDS011;877;46.266;20.062;2022-09-27T04:32:03;32.83;;;11.40;;
1759;SDS011;877;46.266;20.062;2022-09-27T04:34:30;33.40;;;11.50;;
1759;SDS011;877;46.266;20.062;2022-09-27T04:37:17;37.33;;;11.60;;
1759;SDS011;877;46.266;20.062;2022-09-27T04:39:44;30.07;;;12.37;;
1759;SDS011;877;46.266;20.062;2022-09-27T04:42:19;38.07;;;14.17;;
1759;SDS011;877;46.266;20.062;2022-09-27T04:44:47;38.77;;;13.60;;
1759;SDS011;877;46.266;20.062;2022-09-27T04:47:20;60.70;;;14.57;;
1759;SDS011;877;46.266;20.062;2022-09-27T04:49:47;23.30;;;14.90;;
1759;SDS011;877;46.266;20.062;2022-09-27T04:52:15;51.40;;;15.57;;
1759;SDS011;877;46.266;20.062;2022-09-27T04:54:55;44.27;;;15.27;;
1759;SDS011;877;46.266;20.062;2022-09-27T04:57:26;65.37;;;14.97;;
1759;SDS011;877;46.266;20.062;2022-09-27T04:59:54;76.00;;;15.23;;
1759;SDS011;877;46.266;20.062;2022-09-27T05:02:36;78.93;;;17.60;;
1759;SDS011;877;46.266;20.062;2022-09-27T05:05:02;75.10;;;16.43;;
1759;SDS011;877;46.266;20.062;2022-09-27T05:07:32;41.07;;;16.23;;
1759;SDS011;877;46.266;20.062;2022-09-27T05:09:58;28.43;;;14.13;;
1759;SDS011;877;46.266;20.062;2022-09-27T05:12:28;52.30;;;16.07;;
1759;SDS011;877;46.266;20.062;2022-09-27T05:15:02;46.40;;;15.43;;
1759;SDS011;877;46.266;20.062;2022-09-27T05:17:36;63.70;;;17.90;;
1759;SDS011;877;46.266;20.062;2022-09-27T05:20:03;35.47;;;15.47;;
1759;SDS011;877;46.266;20.062;2022-09-27T05:25:11;52.77;;;16.00;;
1759;SDS011;877;46.266;20.062;2022-09-27T05:27:43;58.97;;;15.07;;
1759;SDS011;877;46.266;20.062;2022-09-27T05:30:27;51.63;;;15.37;;
1759;SDS011;877;46.266;20.062;2022-09-27T05:35:24;31.13;;;14.53;;
1759;SDS011;877;46.266;20.062;2022-09-27T05:37:58;40.53;;;14.97;;
1759;SDS011;877;46.266;20.062;2022-09-27T05:43:18;32.97;;;14.87;;
1759;SDS011;877;46.266;20.062;2022-09-27T05:45:46;27.60;;;15.13;;
1759;SDS011;877;46.266;20.062;2022-09-27T05:48:12;31.47;;;14.20;;
1759;SDS011;877;46.266;20.062;2022-09-27T05:50:40;52.20;;;15.00;;
1759;SDS011;877;46.266;20.062;2022-09-27T05:53:08;34.43;;;15.20;;
1759;SDS011;877;46.266;20.062;2022-09-27T06:03:41;23.20;;;14.50;;
1759;SDS011;877;46.266;20.062;2022-09-27T06:06:13;42.90;;;16.03;;
1759;SDS011;877;46.266;20.062;2022-09-27T06:08:45;31.83;;;16.73;;
1759;SDS011;877;46.266;20.062;2022-09-27T06:11:14;39.47;;;14.40;;
1759;SDS011;877;46.266;20.062;2022-09-27T06:13:54;13.47;;;10.17;;
1759;SDS011;877;46.266;20.062;2022-09-27T06:16:21;17.90;;;10.10;;
1759;SDS011;877;46.266;20.062;2022-09-27T06:18:49;13.57;;;8.70;;
1759;SDS011;877;46.266;20.062;2022-09-27T06:21:17;43.17;;;10.60;;
1759;SDS011;877;46.266;20.062;2022-09-27T06:23:43;16.13;;;8.07;;
1759;SDS011;877;46.266;20.062;2022-09-27T06:26:15;40.00;;;11.33;;
1759;SDS011;877;46.266;20.062;2022-09-27T06:28:43;23.20;;;10.20;;
1759;SDS011;877;46.266;20.062;2022-09-27T06:31:18;27.53;;;10.60;;
1759;SDS011;877;46.266;20.062;2022-09-27T06:33:50;22.20;;;9.50;;
1759;SDS011;877;46.266;20.062;2022-09-27T06:36:25;25.63;;;10.60;;
1759;SDS011;877;46.266;20.062;2022-09-27T06:41:32;22.60;;;11.37;;
1759;SDS011;877;46.266;20.062;2022-09-27T06:51:38;29.63;;;13.70;;
1759;SDS011;877;46.266;20.062;2022-09-27T06:54:18;20.83;;;14.53;;
1759;SDS011;877;46.266;20.062;2022-09-27T06:56:51;28.33;;;14.80;;
1759;SDS011;877;46.266;20.062;2022-09-27T06:59:18;26.37;;;15.53;;
1759;SDS011;877;46.266;20.062;2022-09-27T07:02:19;20.80;;;15.53;;
1759;SDS011;877;46.266;20.062;2022-09-27T07:04:45;22.37;;;16.90;;
1759;SDS011;877;46.266;20.062;2022-09-27T07:10:13;23.03;;;16.17;;
1759;SDS011;877;46.266;20.062;2022-09-27T07:12:50;24.30;;;16.97;;
1759;SDS011;877;46.266;20.062;2022-09-27T07:15:26;19.77;;;13.37;;
1759;SDS011;877;46.266;20.062;2022-09-27T07:20:53;27.80;;;15.70;;
1759;SDS011;877;46.266;20.062;2022-09-27T07:23:26;27.17;;;17.60;;
1759;SDS011;877;46.266;20.062;2022-09-27T07:25:54;22.80;;;14.83;;
1759;SDS011;877;46.266;20.062;2022-09-27T07:31:03;23.10;;;14.93;;
1759;SDS011;877;46.266;20.062;2022-09-27T07:33:32;20.90;;;14.87;;
1759;SDS011;877;46.266;20.062;2022-09-27T07:39:00;21.80;;;16.10;;
1759;SDS011;877;46.266;20.062;2022-09-27T07:43:56;27.20;;;18.43;;
1759;SDS011;877;46.266;20.062;2022-09-27T07:49:11;20.67;;;15.30;;
1759;SDS011;877;46.266;20.062;2022-09-27T07:54:27;24.20;;;16.97;;
1759;SDS011;877;46.266;20.062;2022-09-27T07:56:54;22.03;;;14.20;;
1759;SDS011;877;46.266;20.062;2022-09-27T08:02:02;23.27;;;16.63;;
1759;SDS011;877;46.266;20.062;2022-09-27T08:07:20;25.90;;;18.40;;
1759;SDS011;877;46.266;20.062;2022-09-27T08:09:48;25.10;;;18.13;;
1759;SDS011;877;46.266;20.062;2022-09-27T08:14:54;23.17;;;15.17;;
1759;SDS011;877;46.266;20.062;2022-09-27T08:17:27;22.00;;;14.23;;
1759;SDS011;877;46.266;20.062;2022-09-27T08:19:54;25.90;;;16.30;;
1759;SDS011;877;46.266;20.062;2022-09-27T08:22:21;27.23;;;16.27;;
1759;SDS011;877;46.266;20.062;2022-09-27T08:24:47;24.97;;;16.10;;
1759;SDS011;877;46.266;20.062;2022-09-27T08:27:14;18.17;;;12.53;;
1759;SDS011;877;46.266;20.062;2022-09-27T08:29:46;21.30;;;15.23;;
1759;SDS011;877;46.266;20.062;2022-09-27T08:34:59;24.30;;;15.63;;
1759;SDS011;877;46.266;20.062;2022-09-27T08:37:26;25.23;;;17.10;;
1759;SDS011;877;46.266;20.062;2022-09-27T08:39:53;24.17;;;15.53;;
1759;SDS011;877;46.266;20.062;2022-09-27T08:48:14;22.63;;;15.50;;
1759;SDS011;877;46.266;20.062;2022-09-27T08:50:43;20.00;;;14.70;;
1759;SDS011;877;46.266;20.062;2022-09-27T08:55:49;20.23;;;15.07;;
1759;SDS011;877;46.266;20.062;2022-09-27T09:01:13;18.97;;;12.63;;
1759;SDS011;877;46.266;20.062;2022-09-27T09:09:28;19.33;;;13.50;;
1759;SDS011;877;46.266;20.062;2022-09-27T09:23:14;20.50;;;12.57;;
1759;SDS011;877;46.266;20.062;2022-09-27T09:39:35;14.57;;;9.70;;
1759;SDS011;877;46.266;20.062;2022-09-27T09:55:51;15.00;;;9.30;;
1759;SDS011;877;46.266;20.062;2022-09-27T10:01:32;17.33;;;12.20;;
1759;SDS011;877;46.266;20.062;2022-09-27T10:04:10;14.90;;;11.10;;
1759;SDS011;877;46.266;20.062;2022-09-27T10:06:41;16.93;;;11.10;;
1759;SDS011;877;46.266;20.062;2022-09-27T10:09:21;16.40;;;11.47;;
1759;SDS011;877;46.266;20.062;2022-09-27T10:11:54;19.00;;;14.60;;
1759;SDS011;877;46.266;20.062;2022-09-27T10:14:27;17.27;;;12.60;;
1759;SDS011;877;46.266;20.062;2022-09-27T10:19:42;18.23;;;12.47;;
1759;SDS011;877;46.266;20.062;2022-09-27T10:30:54;20.83;;;13.60;;
1759;SDS011;877;46.266;20.062;2022-09-27T10:39:00;19.90;;;13.90;;
1759;SDS011;877;46.266;20.062;2022-09-27T10:44:28;20.13;;;14.80;;
1759;SDS011;877;46.266;20.062;2022-09-27T10:47:40;19.97;;;15.00;;
1759;SDS011;877;46.266;20.062;2022-09-27T10:52:25;23.57;;;17.60;;
1759;SDS011;877;46.266;20.062;2022-09-27T10:54:59;26.03;;;18.37;;
1759;SDS011;877;46.266;20.062;2022-09-27T10:57:33;26.43;;;18.87;;
1759;SDS011;877;46.266;20.062;2022-09-27T11:00:02;33.43;;;17.80;;
1759;SDS011;877;46.266;20.062;2022-09-27T11:02:36;28.90;;;18.90;;
1759;SDS011;877;46.266;20.062;2022-09-27T11:16:45;31.70;;;20.80;;
1759;SDS011;877;46.266;20.062;2022-09-27T11:25:27;39.73;;;23.07;;
1759;SDS011;877;46.266;20.062;2022-09-27T11:31:01;31.43;;;22.47;;
1759;SDS011;877;46.266;20.062;2022-09-27T11:33:45;33.87;;;25.70;;
1759;SDS011;877;46.266;20.062;2022-09-27T11:36:40;32.30;;;22.10;;
1759;SDS011;877;46.266;20.062;2022-09-27T11:42:04;29.13;;;22.40;;
1759;SDS011;877;46.266;20.062;2022-09-27T11:44:51;29.73;;;21.80;;
1759;SDS011;877;46.266;20.062;2022-09-27T11:58:06;29.87;;;20.67;;
1759;SDS011;877;46.266;20.062;2022-09-27T12:17:41;31.27;;;24.57;;
1759;SDS011;877;46.266;20.062;2022-09-27T12:25:28;30.40;;;21.53;;
1759;SDS011;877;46.266;20.062;2022-09-27T12:30:53;29.70;;;22.13;;
1759;SDS011;877;46.266;20.062;2022-09-27T12:33:25;28.83;;;23.30;;
1759;SDS011;877;46.266;20.062;2022-09-27T12:41:31;30.23;;;22.80;;
1759;SDS011;877;46.266;20.062;2022-09-27T12:43:59;30.53;;;22.00;;
1759;SDS011;877;46.266;20.062;2022-09-27T12:51:39;27.70;;;21.37;;
1759;SDS011;877;46.266;20.062;2022-09-27T12:54:20;28.13;;;22.63;;
1759;SDS011;877;46.266;20.062;2022-09-27T12:57:13;29.43;;;22.27;;
1759;SDS011;877;46.266;20.062;2022-09-27T13:02:44;33.23;;;25.30;;
1759;SDS011;877;46.266;20.062;2022-09-27T13:05:30;28.30;;;22.40;;
1759;SDS011;877;46.266;20.062;2022-09-27T13:15:59;33.50;;;26.27;;
1759;SDS011;877;46.266;20.062;2022-09-27T13:21:06;32.70;;;24.93;;
1759;SDS011;877;46.266;20.062;2022-09-27T13:45:52;34.10;;;25.07;;
1759;SDS011;877;46.266;20.062;2022-09-27T13:48:26;30.37;;;23.43;;
1759;SDS011;877;46.266;20.062;2022-09-27T13:53:41;41.03;;;30.00;;
1759;SDS011;877;46.266;20.062;2022-09-27T14:04:55;32.73;;;24.30;;
1759;SDS011;877;46.266;20.062;2022-09-27T14:10:21;31.97;;;24.70;;
1759;SDS011;877;46.266;20.062;2022-09-27T14:12:49;29.90;;;22.07;;
1759;SDS011;877;46.266;20.062;2022-09-27T14:15:25;26.60;;;21.30;;
1759;SDS011;877;46.266;20.062;2022-09-27T14:17:52;28.83;;;21.00;;
1759;SDS011;877;46.266;20.062;2022-09-27T14:23:21;28.60;;;21.40;;
1759;SDS011;877;46.266;20.062;2022-09-27T14:25:55;29.67;;;21.37;;
1759;SDS011;877;46.266;20.062;2022-09-27T14:31:11;29.67;;;21.77;;
1759;SDS011;877;46.266;20.062;2022-09-27T14:33:39;28.60;;;20.90;;
1759;SDS011;877;46.266;20.062;2022-09-27T14:39:19;29.60;;;21.70;;
1759;SDS011;877;46.266;20.062;2022-09-27T14:44:42;23.67;;;18.33;;
1759;SDS011;877;46.266;20.062;2022-09-27T14:47:24;27.97;;;19.67;;
1759;SDS011;877;46.266;20.062;2022-09-27T14:55:43;29.43;;;21.00;;
1759;SDS011;877;46.266;20.062;2022-09-27T14:58:23;32.53;;;22.03;;
1759;SDS011;877;46.266;20.062;2022-09-27T15:00:56;32.20;;;23.17;;
1759;SDS011;877;46.266;20.062;2022-09-27T15:06:28;34.40;;;22.03;;
1759;SDS011;877;46.266;20.062;2022-09-27T15:08:57;34.10;;;21.80;;
1759;SDS011;877;46.266;20.062;2022-09-27T15:11:31;26.87;;;19.47;;
1759;SDS011;877;46.266;20.062;2022-09-27T15:16:37;31.60;;;20.87;;
1759;SDS011;877;46.266;20.062;2022-09-27T15:19:16;28.80;;;20.77;;
1759;SDS011;877;46.266;20.062;2022-09-27T15:21:48;33.53;;;22.57;;
1759;SDS011;877;46.266;20.062;2022-09-27T15:27:21;28.37;;;20.43;;
1759;SDS011;877;46.266;20.062;2022-09-27T15:30:01;29.67;;;22.03;;
1759;SDS011;877;46.266;20.062;2022-09-27T15:32:28;33.37;;;22.20;;
1759;SDS011;877;46.266;20.062;2022-09-27T15:37:38;27.97;;;20.07;;
1759;SDS011;877;46.266;20.062;2022-09-27T15:43:04;29.00;;;18.10;;
1759;SDS011;877;46.266;20.062;2022-09-27T15:48:29;28.43;;;18.03;;
1759;SDS011;877;46.266;20.062;2022-09-27T15:50:58;24.70;;;18.17;;
1759;SDS011;877;46.266;20.062;2022-09-27T15:56:11;29.67;;;19.43;;
1759;SDS011;877;46.266;20.062;2022-09-27T15:58:40;28.63;;;19.03;;
1759;SDS011;877;46.266;20.062;2022-09-27T16:01:23;27.27;;;17.80;;
1759;SDS011;877;46.266;20.062;2022-09-27T16:04:01;26.83;;;18.53;;
1759;SDS011;877;46.266;20.062;2022-09-27T16:09:14;30.30;;;19.23;;
1759;SDS011;877;46.266;20.062;2022-09-27T16:11:49;30.50;;;20.07;;
1759;SDS011;877;46.266;20.062;2022-09-27T16:16:55;32.30;;;20.77;;
1759;SDS011;877;46.266;20.062;2022-09-27T16:19:24;29.20;;;19.00;;
1759;SDS011;877;46.266;20.062;2022-09-27T16:22:07;27.90;;;19.53;;
1759;SDS011;877;46.266;20.062;2022-09-27T16:24:34;28.73;;;20.53;;
1759;SDS011;877;46.266;20.062;2022-09-27T16:27:06;28.90;;;19.03;;
1759;SDS011;877;46.266;20.062;2022-09-27T16:29:39;30.10;;;21.67;;
1759;SDS011;877;46.266;20.062;2022-09-27T16:32:13;31.70;;;22.40;;
1759;SDS011;877;46.266;20.062;2022-09-27T16:34:41;37.90;;;25.57;;
1759;SDS011;877;46.266;20.062;2022-09-27T16:37:10;40.03;;;25.50;;
1759;SDS011;877;46.266;20.062;2022-09-27T16:39:44;55.60;;;41.50;;
1759;SDS011;877;46.266;20.062;2022-09-27T16:42:10;85.47;;;58.70;;
1759;SDS011;877;46.266;20.062;2022-09-27T16:44:38;63.73;;;46.37;;
1759;SDS011;877;46.266;20.062;2022-09-27T16:47:11;58.83;;;43.37;;
1759;SDS011;877;46.266;20.062;2022-09-27T16:49:38;77.67;;;60.77;;
1759;SDS011;877;46.266;20.062;2022-09-27T16:52:23;91.07;;;81.40;;
1759;SDS011;877;46.266;20.062;2022-09-27T16:54:50;46.50;;;35.70;;
1759;SDS011;877;46.266;20.062;2022-09-27T16:57:18;48.90;;;36.10;;
1759;SDS011;877;46.266;20.062;2022-09-27T16:59:51;50.80;;;41.10;;
1759;SDS011;877;46.266;20.062;2022-09-27T17:02:19;38.60;;;27.37;;
1759;SDS011;877;46.266;20.062;2022-09-27T17:04:59;45.40;;;33.50;;
1759;SDS011;877;46.266;20.062;2022-09-27T17:07:30;47.27;;;34.37;;
1759;SDS011;877;46.266;20.062;2022-09-27T17:12:25;53.43;;;36.83;;
1759;SDS011;877;46.266;20.062;2022-09-27T17:14:52;53.90;;;37.33;;
1759;SDS011;877;46.266;20.062;2022-09-27T17:19:51;44.27;;;28.77;;
1759;SDS011;877;46.266;20.062;2022-09-27T17:22:18;42.07;;;26.73;;
1759;SDS011;877;46.266;20.062;2022-09-27T17:24:45;25.83;;;17.33;;
1759;SDS011;877;46.266;20.062;2022-09-27T17:27:11;8.10;;;4.80;;
1759;SDS011;877;46.266;20.062;2022-09-27T17:29:38;5.90;;;3.80;;
1759;SDS011;877;46.266;20.062;2022-09-27T17:32:04;6.27;;;2.57;;
1759;SDS011;877;46.266;20.062;2022-09-27T17:37:10;81.33;;;70.13;;
1759;SDS011;877;46.266;20.062;2022-09-27T17:39:37;3.10;;;2.10;;
1759;SDS011;877;46.266;20.062;2022-09-27T17:42:04;2.87;;;2.00;;
1759;SDS011;877;46.266;20.062;2022-09-27T17:44:30;12.07;;;3.07;;
1759;SDS011;877;46.266;20.062;2022-09-27T17:49:53;5.10;;;2.70;;
1759;SDS011;877;46.266;20.062;2022-09-27T17:52:40;6.10;;;2.67;;
1759;SDS011;877;46.266;20.062;2022-09-27T17:55:14;5.00;;;2.10;;
1759;SDS011;877;46.266;20.062;2022-09-27T17:57:49;5.03;;;2.50;;
1759;SDS011;877;46.266;20.062;2022-09-27T18:00:16;5.20;;;3.57;;
1759;SDS011;877;46.266;20.062;2022-09-27T18:05:14;5.03;;;2.80;;
1759;SDS011;877;46.266;20.062;2022-09-27T18:07:43;8.73;;;7.83;;
1759;SDS011;877;46.266;20.062;2022-09-27T18:10:09;11.30;;;8.27;;
1759;SDS011;877;46.266;20.062;2022-09-27T18:12:39;29.43;;;26.23;;
1759;SDS011;877;46.266;20.062;2022-09-27T18:15:13;42.50;;;29.47;;
1759;SDS011;877;46.266;20.062;2022-09-27T18:17:41;21.93;;;15.10;;
1759;SDS011;877;46.266;20.062;2022-09-27T18:20:09;48.87;;;29.27;;
1759;SDS011;877;46.266;20.062;2022-09-27T18:22:37;25.63;;;16.13;;
1759;SDS011;877;46.266;20.062;2022-09-27T18:25:10;23.10;;;13.93;;
1759;SDS011;877;46.266;20.062;2022-09-27T18:27:40;7.03;;;5.07;;
1759;SDS011;877;46.266;20.062;2022-09-27T18:30:08;6.20;;;4.83;;
1759;SDS011;877;46.266;20.062;2022-09-27T18:32:35;10.50;;;7.40;;
1759;SDS011;877;46.266;20.062;2022-09-27T18:35:02;11.90;;;7.40;;
1759;SDS011;877;46.266;20.062;2022-09-27T18:37:29;15.90;;;9.90;;
1759;SDS011;877;46.266;20.062;2022-09-27T18:39:56;15.43;;;6.53;;
1759;SDS011;877;46.266;20.062;2022-09-27T18:42:22;19.20;;;11.40;;
1759;SDS011;877;46.266;20.062;2022-09-27T18:44:53;9.77;;;6.80;;
1759;SDS011;877;46.266;20.062;2022-09-27T18:47:20;9.60;;;5.97;;
1759;SDS011;877;46.266;20.062;2022-09-27T18:49:47;8.63;;;6.03;;
1759;SDS011;877;46.266;20.062;2022-09-27T18:52:15;49.80;;;44.40;;
1759;SDS011;877;46.266;20.062;2022-09-27T18:54:43;8.53;;;4.50;;
1759;SDS011;877;46.266;20.062;2022-09-27T18:57:10;7.50;;;5.27;;
1759;SDS011;877;46.266;20.062;2022-09-27T19:05:03;5.97;;;4.90;;
1759;SDS011;877;46.266;20.062;2022-09-27T19:07:37;5.90;;;3.20;;
1759;SDS011;877;46.266;20.062;2022-09-27T19:10:05;6.50;;;2.93;;
1759;SDS011;877;46.266;20.062;2022-09-27T19:12:33;5.03;;;2.87;;
1759;SDS011;877;46.266;20.062;2022-09-27T19:15:01;4.40;;;2.70;;
1759;SDS011;877;46.266;20.062;2022-09-27T19:20:07;7.40;;;4.10;;
1759;SDS011;877;46.266;20.062;2022-09-27T19:22:40;9.37;;;5.87;;
1759;SDS011;877;46.266;20.062;2022-09-27T19:25:14;9.80;;;5.40;;
1759;SDS011;877;46.266;20.062;2022-09-27T19:30:12;11.43;;;8.13;;
1759;SDS011;877;46.266;20.062;2022-09-27T19:32:44;7.40;;;5.10;;
1759;SDS011;877;46.266;20.062;2022-09-27T19:35:13;10.37;;;6.40;;
1759;SDS011;877;46.266;20.062;2022-09-27T19:37:41;6.20;;;4.50;;
1759;SDS011;877;46.266;20.062;2022-09-27T19:40:08;7.37;;;5.63;;
1759;SDS011;877;46.266;20.062;2022-09-27T19:45:14;3.77;;;2.37;;
1759;SDS011;877;46.266;20.062;2022-09-27T19:47:40;6.60;;;5.90;;
1759;SDS011;877;46.266;20.062;2022-09-27T19:50:06;6.57;;;5.73;;
1759;SDS011;877;46.266;20.062;2022-09-27T19:52:38;10.80;;;7.37;;
1759;SDS011;877;46.266;20.062;2022-09-27T19:55:06;5.47;;;3.50;;
1759;SDS011;877;46.266;20.062;2022-09-27T19:57:32;4.93;;;3.30;;
1759;SDS011;877;46.266;20.062;2022-09-27T19:59:58;7.60;;;3.70;;
1759;SDS011;877;46.266;20.062;2022-09-27T20:02:27;5.87;;;2.80;;
1759;SDS011;877;46.266;20.062;2022-09-27T20:05:00;3.87;;;2.10;;
1759;SDS011;877;46.266;20.062;2022-09-27T20:10:02;3.90;;;2.40;;
1759;SDS011;877;46.266;20.062;2022-09-27T20:12:40;4.03;;;2.20;;
1759;SDS011;877;46.266;20.062;2022-09-27T20:15:20;3.40;;;2.07;;
1759;SDS011;877;46.266;20.062;2022-09-27T20:20:30;4.13;;;2.77;;
1759;SDS011;877;46.266;20.062;2022-09-27T20:22:56;3.40;;;1.90;;
1759;SDS011;877;46.266;20.062;2022-09-27T20:25:27;4.40;;;2.30;;
1759;SDS011;877;46.266;20.062;2022-09-27T20:27:55;3.60;;;2.07;;
1759;SDS011;877;46.266;20.062;2022-09-27T20:30:22;4.27;;;2.43;;
1759;SDS011;877;46.266;20.062;2022-09-27T20:32:51;5.13;;;2.13;;
1759;SDS011;877;46.266;20.062;2022-09-27T20:35:37;5.40;;;2.90;;
1759;SDS011;877;46.266;20.062;2022-09-27T20:38:09;4.53;;;2.53;;
1759;SDS011;877;46.266;20.062;2022-09-27T20:40:36;3.33;;;1.70;;
1759;SDS011;877;46.266;20.062;2022-09-27T20:43:04;3.33;;;1.80;;
1759;SDS011;877;46.266;20.062;2022-09-27T20:45:31;2.80;;;1.47;;
1759;SDS011;877;46.266;20.062;2022-09-27T20:47:58;3.80;;;1.60;;
1759;SDS011;877;46.266;20.062;2022-09-27T20:50:25;3.90;;;1.93;;
1759;SDS011;877;46.266;20.062;2022-09-27T20:55:33;4.10;;;1.80;;
1759;SDS011;877;46.266;20.062;2022-09-27T20:58:01;4.70;;;2.10;;
1759;SDS011;877;46.266;20.062;2022-09-27T21:00:28;3.07;;;2.00;;
1759;SDS011;877;46.266;20.062;2022-09-27T21:05:34;3.00;;;1.90;;
1759;SDS011;877;46.266;20.062;2022-09-27T21:08:00;3.03;;;1.97;;
1759;SDS011;877;46.266;20.062;2022-09-27T21:10:27;3.70;;;1.90;;
1759;SDS011;877;46.266;20.062;2022-09-27T21:12:56;3.93;;;2.13;;
1759;SDS011;877;46.266;20.062;2022-09-27T21:18:21;5.20;;;2.20;;
1759;SDS011;877;46.266;20.062;2022-09-27T21:26:25;2.73;;;1.70;;
1759;SDS011;877;46.266;20.062;2022-09-27T21:31:51;3.37;;;2.00;;
1759;SDS011;877;46.266;20.062;2022-09-27T21:34:17;3.37;;;2.30;;
1759;SDS011;877;46.266;20.062;2022-09-27T21:36:48;4.50;;;2.20;;
1759;SDS011;877;46.266;20.062;2022-09-27T21:39:20;3.97;;;2.50;;
1759;SDS011;877;46.266;20.062;2022-09-27T21:41:46;3.83;;;2.40;;
1759;SDS011;877;46.266;20.062;2022-09-27T21:44:12;4.80;;;2.40;;
1759;SDS011;877;46.266;20.062;2022-09-27T21:46:40;3.90;;;2.40;;
1759;SDS011;877;46.266;20.062;2022-09-27T21:51:54;4.80;;;3.00;;
1759;SDS011;877;46.266;20.062;2022-09-27T21:54:26;3.87;;;2.60;;
1759;SDS011;877;46.266;20.062;2022-09-27T21:56:59;4.83;;;2.87;;
1759;SDS011;877;46.266;20.062;2022-09-27T21:59:28;4.40;;;2.60;;
1759;SDS011;877;46.266;20.062;2022-09-27T22:04:46;5.07;;;2.97;;
1759;SDS011;877;46.266;20.062;2022-09-27T22:07:16;4.57;;;2.97;;
1759;SDS011;877;46.266;20.062;2022-09-27T22:12:15;5.90;;;3.07;;
1759;SDS011;877;46.266;20.062;2022-09-27T22:14:56;4.67;;;2.70;;
1759;SDS011;877;46.266;20.062;2022-09-27T22:22:33;4.93;;;2.93;;
1759;SDS011;877;46.266;20.062;2022-09-27T22:27:37;8.00;;;3.53;;
1759;SDS011;877;46.266;20.062;2022-09-27T22:30:03;6.67;;;3.73;;
1759;SDS011;877;46.266;20.062;2022-09-27T22:32:34;5.93;;;3.90;;
1759;SDS011;877;46.266;20.062;2022-09-27T22:35:04;7.57;;;3.43;;
1759;SDS011;877;46.266;20.062;2022-09-27T22:37:46;8.17;;;5.00;;
1759;SDS011;877;46.266;20.062;2022-09-27T22:40:13;7.33;;;4.63;;
1759;SDS011;877;46.266;20.062;2022-09-27T22:45:17;7.07;;;4.13;;
1759;SDS011;877;46.266;20.062;2022-09-27T22:47:43;8.40;;;4.93;;
1759;SDS011;877;46.266;20.062;2022-09-27T22:52:47;10.80;;;6.00;;
1759;SDS011;877;46.266;20.062;2022-09-27T22:55:23;9.50;;;5.30;;
1759;SDS011;877;46.266;20.062;2022-09-27T23:00:22;12.67;;;6.97;;
1759;SDS011;877;46.266;20.062;2022-09-27T23:02:57;9.90;;;6.50;;
1759;SDS011;877;46.266;20.062;2022-09-27T23:05:37;9.20;;;5.57;;
1759;SDS011;877;46.266;20.062;2022-09-27T23:13:39;8.70;;;5.30;;
1759;SDS011;877;46.266;20.062;2022-09-27T23:16:19;9.40;;;5.70;;
1759;SDS011;877;46.266;20.062;2022-09-27T23:21:24;10.27;;;6.17;;